Bhakkar Weather



Bhakkar's Current Weather

Temprature 27.74o clear sky

clear sky

Rain: 0 %

Min Temprature27.74o
Max Temprature27.74o
Humidity54
Wind Speed2.54 m/h
Sun Rise06:06:06
Sun Set18:08:16
Current Time: 26-Sep-2022 08:33:52
Lat/Lon: 31.6253, 71.0657




Bhakkar's Geo Location



Bhakkar's Weather Forecast

Time Overall Temp Min Temp Max Temp Humidity Wind Speed Rain
26-Sep-2022 (Mon)
11:00:00 clear sky 27.840 27.840 31.090 55 1.87 m/h 0 %
14:00:00 clear sky 31.730 31.730 34.490 43 1.44 m/h 0 %
17:00:00 clear sky 34.760 34.760 34.760 32 1.77 m/h 0 %
20:00:00 clear sky 32.160 32.160 32.160 38 2.83 m/h 0 %
23:00:00 clear sky 30.920 30.920 30.920 41 2.6 m/h 0 %
27-Sep-2022 (Tue)
02:00:00 clear sky 30.090 30.090 30.090 43 2.36 m/h 0 %
05:00:00 clear sky 28.910 28.910 28.910 47 2.5 m/h 0 %
08:00:00 clear sky 30.620 30.620 30.620 44 2.52 m/h 0 %
11:00:00 clear sky 34.670 34.670 34.670 34 2.51 m/h 0 %
14:00:00 clear sky 37.080 37.080 37.080 28 3 m/h 0 %
17:00:00 clear sky 36.840 36.840 36.840 26 2.72 m/h 0 %
20:00:00 clear sky 33.870 33.870 33.870 30 2.64 m/h 0 %
23:00:00 clear sky 32.290 32.290 32.290 30 3.7 m/h 0 %
28-Sep-2022 (Wed)
02:00:00 clear sky 30.070 30.070 30.070 40 3.75 m/h 0 %
05:00:00 clear sky 28.630 28.630 28.630 43 3.12 m/h 0 %
08:00:00 clear sky 30.650 30.650 30.650 37 2.23 m/h 0 %
11:00:00 clear sky 35.790 35.790 35.790 25 2.62 m/h 0 %
14:00:00 clear sky 38.360 38.360 38.360 20 3.06 m/h 0 %
17:00:00 clear sky 37.850 37.850 37.850 20 3.55 m/h 0 %
20:00:00 clear sky 34.240 34.240 34.240 24 3.43 m/h 0 %
23:00:00 clear sky 31.250 31.250 31.250 30 3.47 m/h 0 %
29-Sep-2022 (Thu)
02:00:00 clear sky 29.280 29.280 29.280 31 2.24 m/h 0 %
05:00:00 clear sky 28.090 28.090 28.090 32 2.3 m/h 0 %
08:00:00 clear sky 30.590 30.590 30.590 28 1.83 m/h 0 %
11:00:00 clear sky 35.900 35.900 35.900 21 2.27 m/h 0 %
14:00:00 clear sky 38.760 38.760 38.760 18 2.72 m/h 0 %
17:00:00 clear sky 38.440 38.440 38.440 17 3.21 m/h 0 %
20:00:00 clear sky 33.740 33.740 33.740 26 5.09 m/h 0 %
23:00:00 clear sky 31.880 31.880 31.880 25 5.77 m/h 0 %
30-Sep-2022 (Fri)
02:00:00 clear sky 29.580 29.580 29.580 28 3.66 m/h 0 %
05:00:00 clear sky 27.940 27.940 27.940 31 2.05 m/h 0 %
08:00:00 clear sky 30.120 30.120 30.120 29 2.66 m/h 0 %
11:00:00 clear sky 36.080 36.080 36.080 21 1.96 m/h 0 %
14:00:00 clear sky 39.090 39.090 39.090 16 2.42 m/h 0 %
17:00:00 clear sky 38.630 38.630 38.630 15 3.17 m/h 0 %
20:00:00 clear sky 33.690 33.690 33.690 22 3.94 m/h 0 %
23:00:00 clear sky 31.560 31.560 31.560 29 4.95 m/h 0 %
01-Oct-2022 (Sat)
02:00:00 clear sky 28.920 28.920 28.920 35 3.53 m/h 0 %
05:00:00 clear sky 27.230 27.230 27.230 40 1.03 m/h 0 %
08:00:00 clear sky 30.060 30.060 30.060 35 2.19 m/h 0 %


Bhakkar's Tourist Spots

Historical Places in Bhakkar

Famous Cities (61)